Reserve, Louisiana
Current Conditions -  °F | °C
As of 12:55 AM on Thursday 23 Oct 2014 (Local Time) from K1L0 Reporting Station
Clear Clear  
Wind Chill: 61°   Ceiling: Unl
Heat Index: 61°   Visibility: 10mi
Dew Point: 54°   Wind: 6mph
Humidity: 76%   Direction: 30°NNE
Pressure: 30.07"   Gusts: NA
Location:  30.06°N, 90.55°W
Report Text: K1L0 230555Z AUTO 03005KT 10SM CLR 16/12 A3007 RMK AO2 T01630120 10190 21304 402581359
Loading
Personal Weather Stations






























Interactive Weather Map
Tropical Storm Tracking
New forecast layout! Learn more

10-Day Weather Forecast

Advertisements
Track Severe Weather on mobile